Tryon, North Carolina
Current Conditions -  °F | °C
As of 4:53 AM on Sunday 26 Oct 2014 (Local Time) from KGSP Reporting Station
Clear Clear  
Wind Chill: 51°   Ceiling: Unl
Heat Index: 51°   Visibility: 10mi
Dew Point: 47°   Wind: 6mph
Humidity: 86%   Direction: 240°WSW
Pressure: 29.91"   Gusts: NA
Location:  35.21°N, 82.24°W
Report Text: KGSP 260853Z AUTO 24005KT 10SM CLR 11/08 A2991 RMK AO2 SLP123 T01060083 58009
Loading
Personal Weather Stations






























Interactive Weather Map
Tropical Storm Tracking
New forecast layout! Learn more

10-Day Weather Forecast

Advertisements
Track Severe Weather on mobile